sensor_id;sensor_type;location;lat;lon;timestamp;pressure;altitude;pressure_sealevel;temperature
39959;BMP280;25639;53.634;9.880;2022-07-23T00:00:07;156266.97;;;15.74
39959;BMP280;25639;53.634;9.880;2022-07-23T00:02:33;156276.03;;;15.77
39959;BMP280;25639;53.634;9.880;2022-07-23T00:04:58;156276.03;;;15.77
39959;BMP280;25639;53.634;9.880;2022-07-23T00:07:24;156270.88;;;15.75
39959;BMP280;25639;53.634;9.880;2022-07-23T00:09:49;156264.44;;;15.73
39959;BMP280;25639;53.634;9.880;2022-07-23T00:12:14;156270.88;;;15.75
39959;BMP280;25639;53.634;9.880;2022-07-23T00:14:40;156283.69;;;15.80
39959;BMP280;25639;53.634;9.880;2022-07-23T00:17:05;156274.72;;;15.77
39959;BMP280;25639;53.634;9.880;2022-07-23T00:19:30;156254.22;;;15.69
39959;BMP280;25639;53.634;9.880;2022-07-23T00:21:56;156268.34;;;15.74
39959;BMP280;25639;53.634;9.880;2022-07-23T00:24:21;156266.97;;;15.74
39959;BMP280;25639;53.634;9.880;2022-07-23T00:26:46;156260.59;;;15.71
39959;BMP280;25639;53.634;9.880;2022-07-23T00:29:12;156250.38;;;15.67
39959;BMP280;25639;53.634;9.880;2022-07-23T00:31:37;156251.66;;;15.68
39959;BMP280;25639;53.634;9.880;2022-07-23T00:34:02;156256.75;;;15.70
39959;BMP280;25639;53.634;9.880;2022-07-23T00:36:28;156246.53;;;15.66
39959;BMP280;25639;53.634;9.880;2022-07-23T00:38:53;156245.28;;;15.65
39959;BMP280;25639;53.634;9.880;2022-07-23T00:41:19;156229.91;;;15.59
39959;BMP280;25639;53.634;9.880;2022-07-23T00:43:44;156220.94;;;15.55
39959;BMP280;25639;53.634;9.880;2022-07-23T00:46:10;156209.47;;;15.51
39959;BMP280;25639;53.634;9.880;2022-07-23T00:48:35;156212.00;;;15.52
39959;BMP280;25639;53.634;9.880;2022-07-23T00:51:00;156214.56;;;15.53
39959;BMP280;25639;53.634;9.880;2022-07-23T00:53:26;156208.13;;;15.50
39959;BMP280;25639;53.634;9.880;2022-07-23T00:55:51;156200.50;;;15.47
39959;BMP280;25639;53.634;9.880;2022-07-23T00:58:18;156201.75;;;15.48
39959;BMP280;25639;53.634;9.880;2022-07-23T01:00:43;156204.28;;;15.49
39959;BMP280;25639;53.634;9.880;2022-07-23T01:03:09;156187.69;;;15.42
39959;BMP280;25639;53.634;9.880;2022-07-23T01:05:34;156190.22;;;15.43
39959;BMP280;25639;53.634;9.880;2022-07-23T01:08:00;156174.91;;;15.37
39959;BMP280;25639;53.634;9.880;2022-07-23T01:10:25;156182.59;;;15.40
39959;BMP280;25639;53.634;9.880;2022-07-23T01:12:58;156169.78;;;15.35
39959;BMP280;25639;53.634;9.880;2022-07-23T01:15:24;156178.75;;;15.38
39959;BMP280;25639;53.634;9.880;2022-07-23T01:17:50;156164.69;;;15.33
39959;BMP280;25639;53.634;9.880;2022-07-23T01:20:15;156155.72;;;15.29
39959;BMP280;25639;53.634;9.880;2022-07-23T01:22:41;156159.53;;;15.31
39959;BMP280;25639;53.634;9.880;2022-07-23T01:25:06;156153.16;;;15.28
39959;BMP280;25639;53.634;9.880;2022-07-23T01:27:32;156157.00;;;15.30
39959;BMP280;25639;53.634;9.880;2022-07-23T01:29:59;156144.19;;;15.24
39959;BMP280;25639;53.634;9.880;2022-07-23T01:32:25;156158.25;;;15.30
39959;BMP280;25639;53.634;9.880;2022-07-23T01:34:50;156162.09;;;15.32
39959;BMP280;25639;53.634;9.880;2022-07-23T01:37:15;156146.78;;;15.25
39959;BMP280;25639;53.634;9.880;2022-07-23T01:39:41;156153.16;;;15.28
39959;BMP280;25639;53.634;9.880;2022-07-23T01:42:06;156153.16;;;15.28
39959;BMP280;25639;53.634;9.880;2022-07-23T01:44:31;156145.47;;;15.25
39959;BMP280;25639;53.634;9.880;2022-07-23T01:46:56;156151.88;;;15.28
39959;BMP280;25639;53.634;9.880;2022-07-23T01:49:22;156150.56;;;15.27
39959;BMP280;25639;53.634;9.880;2022-07-23T01:51:47;156146.78;;;15.25
39959;BMP280;25639;53.634;9.880;2022-07-23T01:54:26;156144.19;;;15.24
39959;BMP280;25639;53.634;9.880;2022-07-23T01:56:52;156150.56;;;15.27
39959;BMP280;25639;53.634;9.880;2022-07-23T01:59:17;156132.66;;;15.20
39959;BMP280;25639;53.634;9.880;2022-07-23T02:01:42;156132.66;;;15.20
39959;BMP280;25639;53.634;9.880;2022-07-23T02:04:08;156140.34;;;15.23
39959;BMP280;25639;53.634;9.880;2022-07-23T02:06:33;156145.47;;;15.25
39959;BMP280;25639;53.634;9.880;2022-07-23T02:08:58;156150.56;;;15.27
39959;BMP280;25639;53.634;9.880;2022-07-23T02:11:23;156136.50;;;15.21
39959;BMP280;25639;53.634;9.880;2022-07-23T02:13:49;156145.47;;;15.25
39959;BMP280;25639;53.634;9.880;2022-07-23T02:16:14;156116.06;;;15.13
39959;BMP280;25639;53.634;9.880;2022-07-23T02:18:39;156119.88;;;15.15
39959;BMP280;25639;53.634;9.880;2022-07-23T02:21:04;156110.91;;;15.11
39959;BMP280;25639;53.634;9.880;2022-07-23T02:23:30;156098.16;;;15.06
39959;BMP280;25639;53.634;9.880;2022-07-23T02:25:55;156095.59;;;15.05
39959;BMP280;25639;53.634;9.880;2022-07-23T02:28:20;156086.66;;;15.01
39959;BMP280;25639;53.634;9.880;2022-07-23T02:30:45;156085.38;;;15.01
39959;BMP280;25639;53.634;9.880;2022-07-23T02:33:11;156085.38;;;15.01
39959;BMP280;25639;53.634;9.880;2022-07-23T02:35:36;156075.13;;;14.97
39959;BMP280;25639;53.634;9.880;2022-07-23T02:38:01;156081.53;;;14.99
39959;BMP280;25639;53.634;9.880;2022-07-23T02:40:27;156082.81;;;15.00
39959;BMP280;25639;53.634;9.880;2022-07-23T02:42:52;156080.28;;;14.99
39959;BMP280;25639;53.634;9.880;2022-07-23T02:45:17;156078.94;;;14.98
39959;BMP280;25639;53.634;9.880;2022-07-23T02:47:43;156061.06;;;14.91
39959;BMP280;25639;53.634;9.880;2022-07-23T02:50:08;156072.59;;;14.96
39959;BMP280;25639;53.634;9.880;2022-07-23T02:52:33;156063.63;;;14.92
39959;BMP280;25639;53.634;9.880;2022-07-23T02:54:59;156078.94;;;14.98
39959;BMP280;25639;53.634;9.880;2022-07-23T02:57:24;156077.69;;;14.98
39959;BMP280;25639;53.634;9.880;2022-07-23T02:59:49;156082.81;;;15.00
39959;BMP280;25639;53.634;9.880;2022-07-23T03:02:15;156084.06;;;15.00
39959;BMP280;25639;53.634;9.880;2022-07-23T03:04:40;156098.16;;;15.06
39959;BMP280;25639;53.634;9.880;2022-07-23T03:07:07;156076.44;;;14.97
39959;BMP280;25639;53.634;9.880;2022-07-23T03:09:33;156071.31;;;14.95
39959;BMP280;25639;53.634;9.880;2022-07-23T03:11:58;156086.66;;;15.01
39959;BMP280;25639;53.634;9.880;2022-07-23T03:14:23;156082.81;;;15.00
39959;BMP280;25639;53.634;9.880;2022-07-23T03:16:48;156077.69;;;14.98
39959;BMP280;25639;53.634;9.880;2022-07-23T03:19:15;156076.44;;;14.97
39959;BMP280;25639;53.634;9.880;2022-07-23T03:21:40;156089.22;;;15.02
39959;BMP280;25639;53.634;9.880;2022-07-23T03:24:08;156087.91;;;15.02
39959;BMP280;25639;53.634;9.880;2022-07-23T03:26:34;156090.50;;;15.03
39959;BMP280;25639;53.634;9.880;2022-07-23T03:28:59;156086.66;;;15.01
39959;BMP280;25639;53.634;9.880;2022-07-23T03:31:26;156091.75;;;15.03
39959;BMP280;25639;53.634;9.880;2022-07-23T03:33:51;156094.31;;;15.04
39959;BMP280;25639;53.634;9.880;2022-07-23T03:36:16;156101.97;;;15.07
39959;BMP280;25639;53.634;9.880;2022-07-23T03:38:42;156096.84;;;15.05
39959;BMP280;25639;53.634;9.880;2022-07-23T03:41:07;156112.25;;;15.12
39959;BMP280;25639;53.634;9.880;2022-07-23T03:43:33;156105.81;;;15.09
39959;BMP280;25639;53.634;9.880;2022-07-23T03:45:58;156094.31;;;15.04
39959;BMP280;25639;53.634;9.880;2022-07-23T03:48:23;156101.97;;;15.07
39959;BMP280;25639;53.634;9.880;2022-07-23T03:50:49;156080.28;;;14.99
39959;BMP280;25639;53.634;9.880;2022-07-23T03:53:14;156094.31;;;15.04
39959;BMP280;25639;53.634;9.880;2022-07-23T03:55:39;156105.81;;;15.09
39959;BMP280;25639;53.634;9.880;2022-07-23T03:58:05;156104.53;;;15.09
39959;BMP280;25639;53.634;9.880;2022-07-23T04:00:30;156113.50;;;15.12
39959;BMP280;25639;53.634;9.880;2022-07-23T04:02:55;156144.19;;;15.24
39959;BMP280;25639;53.634;9.880;2022-07-23T04:05:20;156183.84;;;15.40
39959;BMP280;25639;53.634;9.880;2022-07-23T04:07:46;156209.47;;;15.51
39959;BMP280;25639;53.634;9.880;2022-07-23T04:10:11;156233.75;;;15.60
39959;BMP280;25639;53.634;9.880;2022-07-23T04:12:36;156251.66;;;15.68
39959;BMP280;25639;53.634;9.880;2022-07-23T04:15:02;156263.19;;;15.72
39959;BMP280;25639;53.634;9.880;2022-07-23T04:17:27;156254.22;;;15.69
39959;BMP280;25639;53.634;9.880;2022-07-23T04:19:53;156243.97;;;15.64
39959;BMP280;25639;53.634;9.880;2022-07-23T04:22:18;156241.44;;;15.63
39959;BMP280;25639;53.634;9.880;2022-07-23T04:24:44;156237.59;;;15.62
39959;BMP280;25639;53.634;9.880;2022-07-23T04:27:09;156222.22;;;15.56
39959;BMP280;25639;53.634;9.880;2022-07-23T04:29:34;156235.00;;;15.61
39959;BMP280;25639;53.634;9.880;2022-07-23T04:32:00;156201.75;;;15.48
39959;BMP280;25639;53.634;9.880;2022-07-23T04:34:25;156145.47;;;15.25
39959;BMP280;25639;53.634;9.880;2022-07-23T04:36:52;156149.31;;;15.27
39959;BMP280;25639;53.634;9.880;2022-07-23T04:39:17;156104.53;;;15.09
39959;BMP280;25639;53.634;9.880;2022-07-23T04:41:42;156096.84;;;15.05
39959;BMP280;25639;53.634;9.880;2022-07-23T04:44:08;156089.22;;;15.02
39959;BMP280;25639;53.634;9.880;2022-07-23T04:46:33;156084.06;;;15.00
39959;BMP280;25639;53.634;9.880;2022-07-23T04:48:58;156091.75;;;15.03
39959;BMP280;25639;53.634;9.880;2022-07-23T04:51:24;156085.38;;;15.01
39959;BMP280;25639;53.634;9.880;2022-07-23T04:53:49;156117.34;;;15.14
39959;BMP280;25639;53.634;9.880;2022-07-23T04:56:15;156113.50;;;15.12
39959;BMP280;25639;53.634;9.880;2022-07-23T04:58:40;156116.06;;;15.13
39959;BMP280;25639;53.634;9.880;2022-07-23T05:01:05;156121.19;;;15.15
39959;BMP280;25639;53.634;9.880;2022-07-23T05:03:31;156101.97;;;15.07
39959;BMP280;25639;53.634;9.880;2022-07-23T05:05:56;156117.34;;;15.14
39959;BMP280;25639;53.634;9.880;2022-07-23T05:08:22;156123.72;;;15.16
39959;BMP280;25639;53.634;9.880;2022-07-23T05:10:47;156131.41;;;15.19
39959;BMP280;25639;53.634;9.880;2022-07-23T05:13:16;156131.41;;;15.19
39959;BMP280;25639;53.634;9.880;2022-07-23T05:15:42;156117.34;;;15.14
39959;BMP280;25639;53.634;9.880;2022-07-23T05:18:07;156128.81;;;15.18
39959;BMP280;25639;53.634;9.880;2022-07-23T05:20:33;156117.34;;;15.14
39959;BMP280;25639;53.634;9.880;2022-07-23T05:22:58;156125.03;;;15.17
39959;BMP280;25639;53.634;9.880;2022-07-23T05:25:23;156151.88;;;15.28
39959;BMP280;25639;53.634;9.880;2022-07-23T05:27:49;156167.22;;;15.34
39959;BMP280;25639;53.634;9.880;2022-07-23T05:30:14;156169.78;;;15.35
39959;BMP280;25639;53.634;9.880;2022-07-23T05:32:39;156150.56;;;15.27
39959;BMP280;25639;53.634;9.880;2022-07-23T05:35:05;156141.63;;;15.23
39959;BMP280;25639;53.634;9.880;2022-07-23T05:37:31;156159.53;;;15.31
39959;BMP280;25639;53.634;9.880;2022-07-23T05:40:03;156165.94;;;15.33
39959;BMP280;25639;53.634;9.880;2022-07-23T05:42:28;156171.06;;;15.35
39959;BMP280;25639;53.634;9.880;2022-07-23T05:44:54;156201.75;;;15.48
39959;BMP280;25639;53.634;9.880;2022-07-23T05:47:19;156219.69;;;15.55
39959;BMP280;25639;53.634;9.880;2022-07-23T05:49:44;156227.38;;;15.58
39959;BMP280;25639;53.634;9.880;2022-07-23T05:52:09;156224.78;;;15.57
39959;BMP280;25639;53.634;9.880;2022-07-23T05:54:35;156261.88;;;15.72
39959;BMP280;25639;53.634;9.880;2022-07-23T05:57:00;156247.81;;;15.66
39959;BMP280;25639;53.634;9.880;2022-07-23T05:59:26;156269.63;;;15.75
39959;BMP280;25639;53.634;9.880;2022-07-23T06:01:51;156270.88;;;15.75
39959;BMP280;25639;53.634;9.880;2022-07-23T06:04:16;156296.47;;;15.86
39959;BMP280;25639;53.634;9.880;2022-07-23T06:06:42;156292.63;;;15.84
39959;BMP280;25639;53.634;9.880;2022-07-23T06:09:07;156306.69;;;15.90
39959;BMP280;25639;53.634;9.880;2022-07-23T06:11:32;156319.50;;;15.95
39959;BMP280;25639;53.634;9.880;2022-07-23T06:13:58;156356.66;;;16.10
39959;BMP280;25639;53.634;9.880;2022-07-23T06:16:23;156388.63;;;16.23
39959;BMP280;25639;53.634;9.880;2022-07-23T06:18:48;156396.28;;;16.26
39959;BMP280;25639;53.634;9.880;2022-07-23T06:21:14;156383.53;;;16.20
39959;BMP280;25639;53.634;9.880;2022-07-23T06:23:39;156366.88;;;16.14
39959;BMP280;25639;53.634;9.880;2022-07-23T06:26:04;156403.97;;;16.29
39959;BMP280;25639;53.634;9.880;2022-07-23T06:28:30;156448.75;;;16.47
39959;BMP280;25639;53.634;9.880;2022-07-23T06:30:55;156446.22;;;16.46
39959;BMP280;25639;53.634;9.880;2022-07-23T06:33:20;156452.63;;;16.48
39959;BMP280;25639;53.634;9.880;2022-07-23T06:35:46;156452.63;;;16.48
39959;BMP280;25639;53.634;9.880;2022-07-23T06:38:11;156450.06;;;16.47
39959;BMP280;25639;53.634;9.880;2022-07-23T06:40:36;156451.34;;;16.48
39959;BMP280;25639;53.634;9.880;2022-07-23T06:43:02;156471.81;;;16.56
39959;BMP280;25639;53.634;9.880;2022-07-23T06:45:27;156438.53;;;16.43
39959;BMP280;25639;53.634;9.880;2022-07-23T06:47:52;156475.66;;;16.57
39959;BMP280;25639;53.634;9.880;2022-07-23T06:50:18;156529.41;;;16.79
39959;BMP280;25639;53.634;9.880;2022-07-23T06:52:43;156553.81;;;16.89
39959;BMP280;25639;53.634;9.880;2022-07-23T06:55:09;156569.16;;;16.95
39959;BMP280;25639;53.634;9.880;2022-07-23T06:57:34;156529.41;;;16.79
39959;BMP280;25639;53.634;9.880;2022-07-23T06:59:59;156451.34;;;16.48
39959;BMP280;25639;53.634;9.880;2022-07-23T07:02:25;156412.94;;;16.32
39959;BMP280;25639;53.634;9.880;2022-07-23T07:04:50;156354.06;;;16.09
39959;BMP280;25639;53.634;9.880;2022-07-23T07:07:15;156334.88;;;16.01
39959;BMP280;25639;53.634;9.880;2022-07-23T07:09:41;156322.09;;;15.96
39959;BMP280;25639;53.634;9.880;2022-07-23T07:12:06;156320.81;;;15.95
39959;BMP280;25639;53.634;9.880;2022-07-23T07:14:31;156299.06;;;15.87
39959;BMP280;25639;53.634;9.880;2022-07-23T07:16:57;156304.16;;;15.89
39959;BMP280;25639;53.634;9.880;2022-07-23T07:19:22;156311.84;;;15.92
39959;BMP280;25639;53.634;9.880;2022-07-23T07:21:47;156337.41;;;16.02
39959;BMP280;25639;53.634;9.880;2022-07-23T07:24:13;156361.75;;;16.12
39959;BMP280;25639;53.634;9.880;2022-07-23T07:26:38;156397.59;;;16.26
39959;BMP280;25639;53.634;9.880;2022-07-23T07:29:05;156403.97;;;16.29
39959;BMP280;25639;53.634;9.880;2022-07-23T07:31:30;156421.88;;;16.36
39959;BMP280;25639;53.634;9.880;2022-07-23T07:33:56;156525.56;;;16.77
39959;BMP280;25639;53.634;9.880;2022-07-23T07:36:22;156647.28;;;17.26
39959;BMP280;25639;53.634;9.880;2022-07-23T07:38:47;156720.28;;;17.56
39959;BMP280;25639;53.634;9.880;2022-07-23T07:41:13;156687.00;;;17.42
39959;BMP280;25639;53.634;9.880;2022-07-23T07:43:39;156724.13;;;17.57
39959;BMP280;25639;53.634;9.880;2022-07-23T07:46:05;156757.41;;;17.70
39959;BMP280;25639;53.634;9.880;2022-07-23T07:48:31;156763.81;;;17.73
39959;BMP280;25639;53.634;9.880;2022-07-23T07:50:57;156868.91;;;18.15
39959;BMP280;25639;53.634;9.880;2022-07-23T07:53:22;156988.09;;;18.63
39959;BMP280;25639;53.634;9.880;2022-07-23T07:55:47;156833.03;;;18.01
39959;BMP280;25639;53.634;9.880;2022-07-23T07:58:13;156639.59;;;17.23
39959;BMP280;25639;53.634;9.880;2022-07-23T08:00:38;156558.91;;;16.91
39959;BMP280;25639;53.634;9.880;2022-07-23T08:03:03;156520.44;;;16.75
39959;BMP280;25639;53.634;9.880;2022-07-23T08:05:29;156479.50;;;16.59
39959;BMP280;25639;53.634;9.880;2022-07-23T08:07:56;156487.19;;;16.62
39959;BMP280;25639;53.634;9.880;2022-07-23T08:10:22;156511.50;;;16.72
39959;BMP280;25639;53.634;9.880;2022-07-23T08:12:49;156557.66;;;16.90
39959;BMP280;25639;53.634;9.880;2022-07-23T08:15:16;156581.97;;;17.00
39959;BMP280;25639;53.634;9.880;2022-07-23T08:17:43;156639.59;;;17.23
39959;BMP280;25639;53.634;9.880;2022-07-23T08:20:10;156772.81;;;17.77
39959;BMP280;25639;53.634;9.880;2022-07-23T08:22:57;156772.81;;;17.77
39959;BMP280;25639;53.634;9.880;2022-07-23T08:25:31;156727.97;;;17.59
39959;BMP280;25639;53.634;9.880;2022-07-23T08:27:58;156752.28;;;17.68
39959;BMP280;25639;53.634;9.880;2022-07-23T08:30:24;156822.78;;;17.97
39959;BMP280;25639;53.634;9.880;2022-07-23T08:32:58;156870.22;;;18.16
39959;BMP280;25639;53.634;9.880;2022-07-23T08:35:36;157047.09;;;18.86
39959;BMP280;25639;53.634;9.880;2022-07-23T08:38:04;157142.00;;;19.24
39959;BMP280;25639;53.634;9.880;2022-07-23T08:40:33;157181.69;;;19.40
39959;BMP280;25639;53.634;9.880;2022-07-23T08:42:59;157158.63;;;19.31
39959;BMP280;25639;53.634;9.880;2022-07-23T08:45:26;157218.91;;;19.55
39959;BMP280;25639;53.634;9.880;2022-07-23T08:47:54;157199.69;;;19.48
39959;BMP280;25639;53.634;9.880;2022-07-23T08:50:21;157217.63;;;19.55
39959;BMP280;25639;53.634;9.880;2022-07-23T08:52:51;157271.53;;;19.76
39959;BMP280;25639;53.634;9.880;2022-07-23T08:55:18;157324.09;;;19.97
39959;BMP280;25639;53.634;9.880;2022-07-23T08:57:46;157372.84;;;20.17
39959;BMP280;25639;53.634;9.880;2022-07-23T09:00:13;157393.38;;;20.25
39959;BMP280;25639;53.634;9.880;2022-07-23T09:02:40;157601.25;;;21.08
39959;BMP280;25639;53.634;9.880;2022-07-23T09:05:06;157596.13;;;21.06
39959;BMP280;25639;53.634;9.880;2022-07-23T09:07:31;157592.28;;;21.05
39959;BMP280;25639;53.634;9.880;2022-07-23T09:10:08;157718.09;;;21.55
39959;BMP280;25639;53.634;9.880;2022-07-23T09:12:34;157652.63;;;21.29
39959;BMP280;25639;53.634;9.880;2022-07-23T09:15:05;157601.25;;;21.08
39959;BMP280;25639;53.634;9.880;2022-07-23T09:17:37;157580.75;;;21.00
39959;BMP280;25639;53.634;9.880;2022-07-23T09:20:12;157549.94;;;20.88
39959;BMP280;25639;53.634;9.880;2022-07-23T09:22:38;157560.19;;;20.92
39959;BMP280;25639;53.634;9.880;2022-07-23T09:25:16;157584.59;;;21.02
39959;BMP280;25639;53.634;9.880;2022-07-23T09:30:14;157320.25;;;19.96
39959;BMP280;25639;53.634;9.880;2022-07-23T09:32:40;157334.38;;;20.02
39959;BMP280;25639;53.634;9.880;2022-07-23T09:35:05;157386.94;;;20.23
39959;BMP280;25639;53.634;9.880;2022-07-23T09:37:31;157437.00;;;20.43
39959;BMP280;25639;53.634;9.880;2022-07-23T09:40:04;157429.28;;;20.40
39959;BMP280;25639;53.634;9.880;2022-07-23T09:42:30;157407.47;;;20.31
39959;BMP280;25639;53.634;9.880;2022-07-23T10:19:10;157293.31;;;19.85
39959;BMP280;25639;53.634;9.880;2022-07-23T10:21:46;157283.06;;;19.81
39959;BMP280;25639;53.634;9.880;2022-07-23T10:27:09;157167.59;;;19.35
39959;BMP280;25639;53.634;9.880;2022-07-23T10:32:26;157061.19;;;18.92
39959;BMP280;25639;53.634;9.880;2022-07-23T10:37:46;157090.69;;;19.04
39959;BMP280;25639;53.634;9.880;2022-07-23T10:40:22;157122.72;;;19.17
39959;BMP280;25639;53.634;9.880;2022-07-23T10:42:52;157136.81;;;19.22
39959;BMP280;25639;53.634;9.880;2022-07-23T10:45:29;157197.09;;;19.47
39959;BMP280;25639;53.634;9.880;2022-07-23T10:47:55;157126.56;;;19.18
39959;BMP280;25639;53.634;9.880;2022-07-23T10:57:56;157052.22;;;18.89
39959;BMP280;25639;53.634;9.880;2022-07-23T11:00:23;157099.66;;;19.08
39959;BMP280;25639;53.634;9.880;2022-07-23T11:02:54;157171.44;;;19.36
39959;BMP280;25639;53.634;9.880;2022-07-23T11:05:22;157152.22;;;19.29
39959;BMP280;25639;53.634;9.880;2022-07-23T11:10:39;157284.31;;;19.81
39959;BMP280;25639;53.634;9.880;2022-07-23T11:21:40;157199.69;;;19.48
39959;BMP280;25639;53.634;9.880;2022-07-23T11:24:08;157134.28;;;19.21
39959;BMP280;25639;53.634;9.880;2022-07-23T11:32:23;157407.47;;;20.31
39959;BMP280;25639;53.634;9.880;2022-07-23T11:34:49;157528.13;;;20.79
39959;BMP280;25639;53.634;9.880;2022-07-23T11:37:38;157704.00;;;21.49
39959;BMP280;25639;53.634;9.880;2022-07-23T11:40:07;157721.97;;;21.57
39959;BMP280;25639;53.634;9.880;2022-07-23T11:42:34;157673.13;;;21.37
39959;BMP280;25639;53.634;9.880;2022-07-23T11:44:59;157605.13;;;21.10
39959;BMP280;25639;53.634;9.880;2022-07-23T11:47:26;157588.47;;;21.03
39959;BMP280;25639;53.634;9.880;2022-07-23T11:49:56;157501.19;;;20.68
39959;BMP280;25639;53.634;9.880;2022-07-23T11:52:22;157516.56;;;20.74
39959;BMP280;25639;53.634;9.880;2022-07-23T11:54:53;157380.53;;;20.20
39959;BMP280;25639;53.634;9.880;2022-07-23T11:57:20;157344.63;;;20.06
39959;BMP280;25639;53.634;9.880;2022-07-23T11:59:47;157402.34;;;20.29
39959;BMP280;25639;53.634;9.880;2022-07-23T12:02:14;157447.25;;;20.47
39959;BMP280;25639;53.634;9.880;2022-07-23T12:04:45;157431.84;;;20.41
39959;BMP280;25639;53.634;9.880;2022-07-23T12:09:55;157388.25;;;20.23
39959;BMP280;25639;53.634;9.880;2022-07-23T12:12:21;157460.09;;;20.52
39959;BMP280;25639;53.634;9.880;2022-07-23T12:14:52;157592.28;;;21.05
39959;BMP280;25639;53.634;9.880;2022-07-23T12:17:19;157729.69;;;21.60
39959;BMP280;25639;53.634;9.880;2022-07-23T12:19:45;157763.06;;;21.73
39959;BMP280;25639;53.634;9.880;2022-07-23T12:22:11;157657.75;;;21.31
39959;BMP280;25639;53.634;9.880;2022-07-23T12:24:59;157576.91;;;20.99
39959;BMP280;25639;53.634;9.880;2022-07-23T12:27:26;157533.25;;;20.81
39959;BMP280;25639;53.634;9.880;2022-07-23T12:29:52;157540.97;;;20.84
39959;BMP280;25639;53.634;9.880;2022-07-23T12:32:26;157457.50;;;20.51
39959;BMP280;25639;53.634;9.880;2022-07-23T12:35:06;157379.28;;;20.19
39959;BMP280;25639;53.634;9.880;2022-07-23T12:37:37;157438.28;;;20.43
39959;BMP280;25639;53.634;9.880;2022-07-23T12:43:06;157670.59;;;21.36
39959;BMP280;25639;53.634;9.880;2022-07-23T12:45:44;157732.25;;;21.61
39959;BMP280;25639;53.634;9.880;2022-07-23T12:48:16;157685.97;;;21.42
39959;BMP280;25639;53.634;9.880;2022-07-23T12:50:44;157569.19;;;20.95
39959;BMP280;25639;53.634;9.880;2022-07-23T12:53:23;157578.16;;;20.99
39959;BMP280;25639;53.634;9.880;2022-07-23T12:55:49;157648.75;;;21.27
39959;BMP280;25639;53.634;9.880;2022-07-23T12:58:19;157716.81;;;21.55
39959;BMP280;25639;53.634;9.880;2022-07-23T13:05:51;157610.25;;;21.12
39959;BMP280;25639;53.634;9.880;2022-07-23T13:08:16;157501.19;;;20.68
39959;BMP280;25639;53.634;9.880;2022-07-23T13:10:42;157505.03;;;20.70
39959;BMP280;25639;53.634;9.880;2022-07-23T13:13:10;157462.63;;;20.53
39959;BMP280;25639;53.634;9.880;2022-07-23T13:15:35;157460.09;;;20.52
39959;BMP280;25639;53.634;9.880;2022-07-23T13:18:01;157422.84;;;20.37
39959;BMP280;25639;53.634;9.880;2022-07-23T13:20:26;157425.44;;;20.38
39959;BMP280;25639;53.634;9.880;2022-07-23T13:22:51;157593.59;;;21.05
39959;BMP280;25639;53.634;9.880;2022-07-23T13:25:17;157651.34;;;21.28
39959;BMP280;25639;53.634;9.880;2022-07-23T13:27:42;157544.81;;;20.86
39959;BMP280;25639;53.634;9.880;2022-07-23T13:30:08;157488.34;;;20.63
39959;BMP280;25639;53.634;9.880;2022-07-23T13:32:35;157479.31;;;20.60
39959;BMP280;25639;53.634;9.880;2022-07-23T13:35:01;157505.03;;;20.70
39959;BMP280;25639;53.634;9.880;2022-07-23T13:37:26;157484.50;;;20.62
39959;BMP280;25639;53.634;9.880;2022-07-23T13:39:51;157535.84;;;20.82
39959;BMP280;25639;53.634;9.880;2022-07-23T13:42:17;157585.88;;;21.02
39959;BMP280;25639;53.634;9.880;2022-07-23T13:44:42;157549.94;;;20.88
39959;BMP280;25639;53.634;9.880;2022-07-23T13:47:08;157592.28;;;21.05
39959;BMP280;25639;53.634;9.880;2022-07-23T13:49:33;157534.53;;;20.82
39959;BMP280;25639;53.634;9.880;2022-07-23T13:51:59;157511.44;;;20.72
39959;BMP280;25639;53.634;9.880;2022-07-23T13:54:24;157535.84;;;20.82
39959;BMP280;25639;53.634;9.880;2022-07-23T13:56:49;157576.91;;;20.99
39959;BMP280;25639;53.634;9.880;2022-07-23T13:59:15;157584.59;;;21.02
39959;BMP280;25639;53.634;9.880;2022-07-23T14:01:40;157633.38;;;21.21
39959;BMP280;25639;53.634;9.880;2022-07-23T14:04:05;157611.56;;;21.12
39959;BMP280;25639;53.634;9.880;2022-07-23T14:06:31;157574.31;;;20.98
39959;BMP280;25639;53.634;9.880;2022-07-23T14:08:56;157620.53;;;21.16
39959;BMP280;25639;53.634;9.880;2022-07-23T14:11:21;157734.81;;;21.62
39959;BMP280;25639;53.634;9.880;2022-07-23T14:13:47;157797.72;;;21.87
39959;BMP280;25639;53.634;9.880;2022-07-23T14:16:12;157858.06;;;22.11
39959;BMP280;25639;53.634;9.880;2022-07-23T14:18:37;157791.31;;;21.84
39959;BMP280;25639;53.634;9.880;2022-07-23T14:21:03;157777.19;;;21.79
39959;BMP280;25639;53.634;9.880;2022-07-23T14:23:28;157774.59;;;21.78
39959;BMP280;25639;53.634;9.880;2022-07-23T14:25:54;157696.31;;;21.46
39959;BMP280;25639;53.634;9.880;2022-07-23T14:28:19;157600.00;;;21.08
39959;BMP280;25639;53.634;9.880;2022-07-23T14:30:44;157597.44;;;21.07
39959;BMP280;25639;53.634;9.880;2022-07-23T14:33:09;157696.31;;;21.46
39959;BMP280;25639;53.634;9.880;2022-07-23T14:35:35;157680.84;;;21.40
39959;BMP280;25639;53.634;9.880;2022-07-23T14:38:00;157648.75;;;21.27
39959;BMP280;25639;53.634;9.880;2022-07-23T14:40:25;157628.22;;;21.19
39959;BMP280;25639;53.634;9.880;2022-07-23T14:42:51;157661.59;;;21.32
39959;BMP280;25639;53.634;9.880;2022-07-23T14:45:16;157629.53;;;21.20
39959;BMP280;25639;53.634;9.880;2022-07-23T14:47:41;157594.84;;;21.06
39959;BMP280;25639;53.634;9.880;2022-07-23T14:50:07;157562.78;;;20.93
39959;BMP280;25639;53.634;9.880;2022-07-23T14:52:34;157556.34;;;20.90
39959;BMP280;25639;53.634;9.880;2022-07-23T14:54:59;157519.16;;;20.75
39959;BMP280;25639;53.634;9.880;2022-07-23T14:57:24;157461.34;;;20.52
39959;BMP280;25639;53.634;9.880;2022-07-23T14:59:49;157480.59;;;20.60
39959;BMP280;25639;53.634;9.880;2022-07-23T15:02:15;157453.66;;;20.49
39959;BMP280;25639;53.634;9.880;2022-07-23T15:04:40;157413.88;;;20.33
39959;BMP280;25639;53.634;9.880;2022-07-23T15:07:06;157412.59;;;20.33
39959;BMP280;25639;53.634;9.880;2022-07-23T15:09:31;157407.47;;;20.31
39959;BMP280;25639;53.634;9.880;2022-07-23T15:11:56;157384.41;;;20.22